createdAt,value
2024-01-26T00:06:39.272Z,23.84
2024-01-26T00:16:44.661Z,23.78
2024-01-26T00:26:49.633Z,23.78
2024-01-26T00:36:54.774Z,23.80
2024-01-26T00:47:00.263Z,23.81
2024-01-26T00:57:05.424Z,23.73
2024-01-26T01:07:10.314Z,23.69
2024-01-26T01:17:15.358Z,23.68
2024-01-26T01:27:20.584Z,23.60
2024-01-26T01:37:25.676Z,23.57
2024-01-26T01:47:31.364Z,23.52
2024-01-26T01:57:36.903Z,23.58
2024-01-26T02:07:42.440Z,23.57
2024-01-26T02:17:47.624Z,23.54
2024-01-26T02:27:52.791Z,23.49
2024-01-26T02:37:58.218Z,23.51
2024-01-26T02:48:03.633Z,23.48
2024-01-26T02:58:08.922Z,23.44
2024-01-26T03:08:13.868Z,23.44
2024-01-26T03:18:19.647Z,23.42
2024-01-26T03:28:25.086Z,23.36
2024-01-26T03:38:31.606Z,23.43
2024-01-26T03:48:37.286Z,23.41
2024-01-26T03:58:42.941Z,23.42
2024-01-26T04:08:48.332Z,23.35
2024-01-26T04:18:53.739Z,23.35
2024-01-26T04:28:58.969Z,23.37
2024-01-26T04:39:04.536Z,23.37
2024-01-26T04:49:10.194Z,23.29
2024-01-26T04:59:15.828Z,23.32
2024-01-26T05:09:21.213Z,23.33
2024-01-26T05:19:26.924Z,23.35
2024-01-26T05:29:32.431Z,23.31
2024-01-26T05:39:37.762Z,23.31
2024-01-26T05:49:43.344Z,23.27
2024-01-26T05:59:48.603Z,23.25
2024-01-26T06:09:54.024Z,23.23
2024-01-26T06:19:59.265Z,23.28
2024-01-26T06:30:04.543Z,23.32
2024-01-26T06:40:09.929Z,23.32
2024-01-26T06:50:15.323Z,23.26
2024-01-26T07:00:20.517Z,23.27
2024-01-26T07:10:25.695Z,23.28
2024-01-26T07:20:31.544Z,23.25
2024-01-26T07:30:38.234Z,23.23
2024-01-26T07:40:43.571Z,23.21
2024-01-26T07:50:48.769Z,23.26
2024-01-26T08:00:54.290Z,23.23
2024-01-26T08:10:59.868Z,23.22
2024-01-26T08:21:05.085Z,23.18
2024-01-26T08:31:10.284Z,23.21
2024-01-26T08:41:14.879Z,23.19
2024-01-26T08:51:20.277Z,23.20
2024-01-26T09:01:25.626Z,23.18
2024-01-26T09:11:30.968Z,23.20
2024-01-26T09:21:36.309Z,23.31
2024-01-26T09:31:50.388Z,23.42
2024-01-26T09:43:15.192Z,23.50
2024-01-26T09:53:19.801Z,23.51
2024-01-26T10:03:24.882Z,23.56
2024-01-26T10:13:30.225Z,23.60
2024-01-26T10:23:35.439Z,23.63
2024-01-26T10:33:41.437Z,23.64
2024-01-26T10:43:46.921Z,23.64
2024-01-26T10:53:52.773Z,23.68
2024-01-26T11:03:58.387Z,23.70
2024-01-26T11:14:03.814Z,23.71
2024-01-26T11:24:09.164Z,23.69
2024-01-26T11:34:14.891Z,23.70
2024-01-26T11:44:20.343Z,23.69
2024-01-26T11:54:27.354Z,23.69
2024-01-26T12:04:32.849Z,23.69
2024-01-26T12:14:38.426Z,23.64
2024-01-26T12:24:43.828Z,23.68
2024-01-26T12:34:49.580Z,23.69
2024-01-26T12:44:55.717Z,23.69
2024-01-26T12:55:01.427Z,23.73
2024-01-26T13:05:07.228Z,23.75
2024-01-26T13:15:13.311Z,23.75
2024-01-26T13:25:19.261Z,23.77
2024-01-26T13:35:24.810Z,23.75
2024-01-26T13:45:30.304Z,23.78
2024-01-26T13:55:35.816Z,23.72
2024-01-26T14:05:41.596Z,23.75
2024-01-26T14:15:47.466Z,23.74
2024-01-26T14:25:53.605Z,23.77
2024-01-26T14:35:58.876Z,23.77
2024-01-26T14:46:04.385Z,23.76
2024-01-26T14:56:10.284Z,23.77
2024-01-26T15:06:15.880Z,23.76
2024-01-26T15:16:21.377Z,23.78
2024-01-26T15:26:26.959Z,23.71
2024-01-26T15:36:32.512Z,23.75
2024-01-26T15:46:38.249Z,23.73
2024-01-26T15:56:43.830Z,23.73
2024-01-26T16:06:50.884Z,23.74
2024-01-26T16:16:56.719Z,23.72
2024-01-26T16:27:02.353Z,23.72
2024-01-26T16:37:08.275Z,23.78
2024-01-26T16:47:13.466Z,23.80
2024-01-26T16:57:18.929Z,23.78
2024-01-26T17:07:24.271Z,23.72
2024-01-26T17:17:29.717Z,23.83
2024-01-26T17:27:35.214Z,23.78
2024-01-26T17:37:40.459Z,23.82
2024-01-26T17:47:45.599Z,23.83
2024-01-26T17:57:51.314Z,23.95
2024-01-26T18:07:56.961Z,23.94
2024-01-26T18:18:02.669Z,24.00
2024-01-26T18:28:07.918Z,24.01
2024-01-26T18:38:13.407Z,23.97
2024-01-26T18:48:18.943Z,23.97
2024-01-26T18:58:24.796Z,23.95
2024-01-26T19:08:30.911Z,24.00
2024-01-26T19:18:37.145Z,23.95
2024-01-26T19:28:43.294Z,23.96
2024-01-26T19:38:48.618Z,23.93
2024-01-26T19:48:54.298Z,23.94
2024-01-26T19:58:59.857Z,23.93
2024-01-26T20:09:05.324Z,23.88
2024-01-26T20:19:11.468Z,23.89
2024-01-26T20:29:17.072Z,23.88
2024-01-26T20:39:22.903Z,23.84
2024-01-26T20:49:28.360Z,23.83
2024-01-26T20:59:34.101Z,23.84
2024-01-26T21:09:40.014Z,23.79
2024-01-26T21:19:45.475Z,23.86
2024-01-26T21:29:50.586Z,23.87
2024-01-26T21:39:55.994Z,23.87
2024-01-26T21:50:01.574Z,23.80
2024-01-26T22:00:08.441Z,23.81
2024-01-26T22:10:14.134Z,23.83
2024-01-26T22:20:19.555Z,23.84
2024-01-26T22:30:24.956Z,23.86
2024-01-26T22:40:30.653Z,23.83
2024-01-26T22:50:35.934Z,23.86
2024-01-26T23:00:41.363Z,23.86
2024-01-26T23:10:46.830Z,23.85
2024-01-26T23:20:52.213Z,23.84
2024-01-26T23:30:57.829Z,23.87
2024-01-26T23:41:03.097Z,23.87
2024-01-26T23:51:08.498Z,23.81
